Time;durP1;ratioP1;P1;durP2;ratioP2;P2;SDS_P1;SDS_P2;PMS_P1;PMS_P2;Temp;Humidity;BMP_temperature;BMP_pressure;BME280_temperature;BME280_humidity;BME280_pressure;Samples;Min_cycle;Max_cycle;Signal;HPM_P1;HPM_P2
2022/06/16 00:02:04;;;;;;;8.23;3.55;;;;;;;19.51;84.99;100476.06;5108714;28;20032;-28
2022/06/16 00:04:30;;;;;;;7.35;3.60;;;;;;;19.17;86.98;100481.97;5108356;28;20047;-28
2022/06/16 00:06:56;;;;;;;11.07;4.18;;;;;;;19.14;86.29;100471.66;5108888;28;20384;-27
2022/06/16 00:09:25;;;;;;;6.13;3.38;;;;;;;19.18;86.47;100469.25;5089857;28;20088;-30
2022/06/16 00:11:51;;;;;;;10.45;3.70;;;;;;;19.37;86.19;100486.63;5089948;28;20031;-30
2022/06/16 00:14:18;;;;;;;7.72;3.92;;;;;;;19.36;86.02;100492.28;5089854;28;20081;-31
2022/06/16 00:16:43;;;;;;;9.77;3.83;;;;;;;19.11;86.46;100472.22;5089906;28;20031;-32
2022/06/16 00:19:09;;;;;;;7.45;3.70;;;;;;;19.23;86.59;100483.59;5108311;28;20560;-29
2022/06/16 00:21:34;;;;;;;9.18;4.07;;;;;;;19.14;86.81;100482.47;5108416;28;20031;-28
2022/06/16 00:23:59;;;;;;;6.65;4.05;;;;;;;19.35;85.95;100487.94;5108558;28;20023;-28
2022/06/16 00:26:27;;;;;;;8.55;4.68;;;;;;;19.33;85.55;100480.13;5108416;28;20035;-28
2022/06/16 00:28:53;;;;;;;7.00;3.63;;;;;;;19.36;85.59;100495.00;5089765;28;20031;-28
2022/06/16 00:31:20;;;;;;;6.40;3.88;;;;;;;19.08;87.44;100488.94;5107801;28;20043;-30
2022/06/16 00:33:47;;;;;;;9.30;4.10;;;;;;;19.12;87.39;100495.44;5089820;28;20024;-28
2022/06/16 00:36:14;;;;;;;7.57;4.38;;;;;;;19.14;86.87;100495.19;5108322;28;20116;-31
2022/06/16 00:38:40;;;;;;;8.97;3.97;;;;;;;19.12;86.95;100489.22;5108198;28;20031;-28
2022/06/16 00:41:08;;;;;;;10.38;4.13;;;;;;;18.93;88.17;100497.81;5088520;28;20839;-28
2022/06/16 00:43:33;;;;;;;6.70;4.00;;;;;;;18.74;88.98;100478.53;5107916;28;20031;-31
2022/06/16 00:46:05;;;;;;;6.90;4.40;;;;;;;18.91;88.45;100482.94;5107736;28;20646;-31
2022/06/16 00:48:34;;;;;;;8.23;4.10;;;;;;;19.13;87.32;100485.47;5088925;28;20030;-28
2022/06/16 00:51:08;;;;;;;6.20;4.00;;;;;;;18.97;87.83;100488.09;5107970;28;20031;-31
2022/06/16 00:53:36;;;;;;;6.32;3.80;;;;;;;19.28;86.26;100477.38;5089079;28;20525;-30
2022/06/16 00:56:02;;;;;;;7.55;3.97;;;;;;;18.86;87.92;100464.84;5089332;28;20035;-30
2022/06/16 00:58:29;;;;;;;7.00;3.78;;;;;;;18.80;87.53;100472.09;5107347;28;20113;-30
2022/06/16 01:00:55;;;;;;;8.73;4.00;;;;;;;18.79;87.22;100459.66;5089362;28;20035;-28
2022/06/16 01:06:23;;;;;;;6.65;3.92;;;;;;;18.62;89.02;100480.63;5107645;28;20407;-32
2022/06/16 01:08:53;;;;;;;8.05;4.30;;;;;;;18.92;87.80;100471.03;5088902;28;20510;-28
2022/06/16 01:14:24;;;;;;;6.45;3.83;;;;;;;18.79;87.15;100440.72;5107413;28;20780;-30
2022/06/16 01:16:52;;;;;;;8.25;3.60;;;;;;;18.89;86.85;100475.09;5072986;28;20034;-31
2022/06/16 01:19:41;;;;;;;8.48;4.05;;;;;;;18.53;88.47;100471.38;5088567;28;20070;-35
2022/06/16 01:22:15;;;;;;;7.82;3.92;;;;;;;18.59;88.07;100473.03;5088958;28;20039;-29
2022/06/16 01:24:43;;;;;;;9.15;4.10;;;;;;;18.78;87.08;100468.81;5107282;28;20030;-33
2022/06/16 01:27:28;;;;;;;11.82;3.83;;;;;;;18.87;86.49;100474.53;5106743;28;20115;-32
2022/06/16 01:30:00;;;;;;;6.18;3.90;;;;;;;18.74;87.21;100473.13;5092309;28;20048;-28
2022/06/16 01:32:25;;;;;;;6.93;4.00;;;;;;;18.81;87.06;100476.41;5107416;28;20116;-28
2022/06/16 01:35:16;;;;;;;7.45;4.10;;;;;;;18.78;86.94;100468.81;5107041;28;20035;-28
2022/06/16 01:37:47;;;;;;;6.28;4.15;;;;;;;18.62;88.36;100481.44;5106922;28;20023;-36
2022/06/16 01:40:37;;;;;;;8.10;3.83;;;;;;;18.56;88.48;100473.56;5106500;28;20038;-31
2022/06/16 01:43:12;;;;;;;6.95;3.97;;;;;;;18.33;90.10;100472.06;5106567;28;20560;-28
2022/06/16 01:45:42;;;;;;;8.13;4.13;;;;;;;18.33;89.79;100462.09;5088338;28;20035;-31
2022/06/16 01:48:10;;;;;;;6.35;4.25;;;;;;;18.27;90.21;100452.34;5088328;28;20537;-27
2022/06/16 01:50:40;;;;;;;;;;;;;;;18.38;89.94;100464.81;5088465;28;20031;-31
2022/06/16 01:53:11;;;;;;;9.98;4.30;;;;;;;18.45;89.23;100473.50;5088238;28;20136;-29
2022/06/16 01:55:42;;;;;;;10.00;5.15;;;;;;;18.65;87.98;100480.09;5088325;28;20026;-28
2022/06/16 01:58:17;;;;;;;8.90;4.00;;;;;;;18.53;88.46;100480.31;5088218;28;20027;-30
2022/06/16 02:00:47;;;;;;;8.23;4.00;;;;;;;18.45;89.31;100478.91;5088099;28;20394;-28
2022/06/16 02:03:27;;;;;;;7.53;4.20;;;;;;;18.68;88.03;100480.38;5104826;28;20066;-30
2022/06/16 02:06:05;;;;;;;8.75;4.00;;;;;;;18.30;88.87;100469.91;5088163;28;20427;-28
2022/06/16 02:08:36;;;;;;;13.15;4.35;;;;;;;18.43;88.87;100481.06;5106960;28;20036;-30
2022/06/16 02:11:07;;;;;;;12.77;4.53;;;;;;;18.37;88.60;100474.00;5087897;28;20024;-33
2022/06/16 02:13:41;;;;;;;10.38;4.20;;;;;;;18.66;87.41;100481.72;5087891;28;20028;-29
2022/06/16 02:16:13;;;;;;;8.23;4.05;;;;;;;18.34;87.96;100463.72;5088073;28;20019;-28
2022/06/16 02:18:41;;;;;;;8.52;4.88;;;;;;;18.77;86.26;100483.38;5088273;28;20112;-28
2022/06/16 02:21:27;;;;;;;8.35;4.47;;;;;;;18.46;86.73;100485.94;5087727;28;20031;-30
2022/06/16 02:23:53;;;;;;;9.63;4.07;;;;;;;18.50;87.36;100483.53;5087831;28;20491;-29
2022/06/16 02:26:19;;;;;;;7.32;4.25;;;;;;;18.30;87.11;100465.31;5106401;28;20106;-28
2022/06/16 02:28:50;;;;;;;7.25;4.18;;;;;;;18.18;88.44;100489.78;5106408;28;20117;-30
2022/06/16 02:31:34;;;;;;;8.88;4.63;;;;;;;18.14;89.60;100491.38;5087527;28;20089;-29
2022/06/16 02:34:24;;;;;;;7.45;4.60;;;;;;;18.34;88.39;100496.09;5105889;28;20034;-30
2022/06/16 02:37:08;;;;;;;9.02;4.65;;;;;;;18.33;88.49;100499.91;5106325;28;20028;-29
2022/06/16 02:39:52;;;;;;;10.75;5.53;;;;;;;18.62;87.08;100496.84;5087682;28;20065;-31
2022/06/16 02:42:53;;;;;;;8.65;4.70;;;;;;;18.15;88.55;100476.00;5106155;28;20132;-30
2022/06/16 02:45:49;;;;;;;9.45;4.45;;;;;;;18.24;89.06;100496.84;5105893;28;20449;-28
2022/06/16 02:48:32;;;;;;;10.57;4.33;;;;;;;18.27;88.93;100495.53;5106283;28;20015;-28
2022/06/16 02:51:08;;;;;;;10.70;4.22;;;;;;;18.25;88.47;100476.09;5087277;28;20042;-29
2022/06/16 02:56:30;;;;;;;8.75;4.25;;;;;;;18.26;89.53;100493.91;5105999;28;20035;-30
2022/06/16 02:59:01;;;;;;;6.70;4.10;;;;;;;18.24;89.76;100498.75;5087434;28;20034;-28
2022/06/16 03:01:28;;;;;;;9.23;4.78;;;;;;;18.37;88.79;100503.69;5105681;28;20062;-29
2022/06/16 03:04:02;;;;;;;13.75;4.97;;;;;;;18.42;89.42;100495.63;5089227;28;20070;-34
2022/06/16 03:06:27;;;;;;;9.07;4.93;;;;;;;18.37;89.92;100500.16;5091398;28;20094;-30
2022/06/16 03:08:53;;;;;;;8.32;4.97;;;;;;;18.17;90.70;100490.06;5110023;28;20032;-28
2022/06/16 03:11:18;;;;;;;10.35;5.07;;;;;;;18.20;92.36;100497.63;5109817;28;20077;-28
2022/06/16 03:13:44;;;;;;;6.93;4.70;;;;;;;17.96;94.15;100494.47;5091475;28;20032;-28
2022/06/16 03:16:10;;;;;;;8.18;4.63;;;;;;;18.07;94.13;100502.41;5110145;28;20094;-31
2022/06/16 03:18:35;;;;;;;7.88;4.90;;;;;;;18.01;93.95;100487.22;5091740;28;20127;-28
2022/06/16 03:21:01;;;;;;;12.82;5.18;;;;;;;18.52;91.78;100502.19;5109989;28;20031;-31
2022/06/16 03:23:26;;;;;;;8.30;4.72;;;;;;;18.33;92.23;100499.91;5109835;28;20035;-32
2022/06/16 03:25:52;;;;;;;7.97;4.70;;;;;;;18.41;91.73;100501.31;5109836;28;20019;-31
2022/06/16 03:28:18;;;;;;;11.23;4.78;;;;;;;18.46;92.33;100504.03;5109533;28;20036;-34
2022/06/16 03:30:43;;;;;;;9.10;4.90;;;;;;;18.24;93.82;100493.34;5109970;28;20028;-32
2022/06/16 03:33:10;;;;;;;10.15;4.43;;;;;;;18.35;91.73;100475.31;5109136;28;20761;-28
2022/06/16 03:35:37;;;;;;;8.82;5.20;;;;;;;18.45;92.46;100489.72;5090352;28;20054;-31
2022/06/16 03:38:06;;;;;;;13.10;5.03;;;;;;;18.44;91.63;100473.75;5109093;28;20038;-28
2022/06/16 03:40:31;;;;;;;9.88;5.97;;;;;;;18.64;89.98;100478.47;5090912;28;20116;-30
2022/06/16 03:42:56;;;;;;;15.40;8.02;;;;;;;18.70;89.14;100472.03;5109302;28;20023;-29
2022/06/16 03:45:22;;;;;;;12.10;5.65;;;;;;;19.03;88.33;100502.47;5108915;28;20022;-28
2022/06/16 03:47:48;;;;;;;10.55;5.03;;;;;;;18.62;90.22;100486.03;5090608;28;20039;-30
2022/06/16 03:50:16;;;;;;;9.38;5.10;;;;;;;18.75;89.71;100504.44;5108973;28;20031;-28
2022/06/16 03:52:42;;;;;;;7.07;4.57;;;;;;;18.60;90.60;100509.78;5090551;28;20117;-28
2022/06/16 03:55:08;;;;;;;9.38;4.82;;;;;;;18.70;90.42;100504.44;5108612;28;20057;-30
2022/06/16 03:57:34;;;;;;;10.43;5.30;;;;;;;18.80;90.50;100507.22;5090307;28;20782;-28
2022/06/16 04:00:00;;;;;;;10.25;5.10;;;;;;;18.81;90.33;100511.53;5108707;28;20032;-29
2022/06/16 04:02:25;;;;;;;9.00;4.65;;;;;;;18.71;90.08;100511.44;5090383;28;20031;-27
2022/06/16 04:04:51;;;;;;;12.10;5.20;;;;;;;18.78;91.18;100506.66;5108882;28;20124;-30
2022/06/16 04:07:16;;;;;;;9.77;4.90;;;;;;;18.89;91.18;100521.03;5090304;28;20031;-29
2022/06/16 04:09:41;;;;;;;7.78;4.72;;;;;;;18.90;89.01;100514.56;5108743;28;20042;-30
2022/06/16 04:12:07;;;;;;;8.55;4.75;;;;;;;18.78;89.90;100495.84;5108536;28;20036;-28
2022/06/16 04:14:33;;;;;;;6.22;4.32;;;;;;;18.88;90.78;100514.03;5107816;28;20034;-28
2022/06/16 04:17:00;;;;;;;10.23;4.75;;;;;;;18.96;91.67;100523.50;5090093;28;20032;-28
2022/06/16 04:19:26;;;;;;;10.33;4.90;;;;;;;18.96;90.99;100524.34;5090158;28;20570;-32
2022/06/16 04:21:53;;;;;;;11.20;5.22;;;;;;;18.80;92.14;100515.31;5090080;28;20036;-33
2022/06/16 04:24:20;;;;;;;10.83;5.10;;;;;;;18.86;90.97;100516.97;5108379;28;20122;-30
2022/06/16 04:26:51;;;;;;;11.10;5.20;;;;;;;18.72;91.40;100502.28;5089749;28;20027;-35
2022/06/16 04:29:17;;;;;;;13.18;5.18;;;;;;;19.09;89.58;100528.44;5108432;28;20499;-32
2022/06/16 04:31:43;;;;;;;10.68;5.45;;;;;;;19.31;88.45;100519.28;5108400;28;20040;-31
2022/06/16 04:34:09;;;;;;;8.20;5.10;;;;;;;19.26;89.08;100501.19;5089799;28;20050;-32
2022/06/16 04:36:37;;;;;;;8.70;4.93;;;;;;;19.24;89.24;100520.34;5108409;28;20035;-30
2022/06/16 04:39:02;;;;;;;9.07;5.25;;;;;;;19.46;87.89;100528.28;5089211;28;20027;-30
2022/06/16 04:41:28;;;;;;;11.73;5.50;;;;;;;19.41;88.39;100528.28;5089475;28;20036;-32
2022/06/16 04:43:53;;;;;;;11.32;5.22;;;;;;;19.62;87.46;100541.84;5108121;28;20029;-30
2022/06/16 04:46:19;;;;;;;11.68;5.25;;;;;;;19.55;87.18;100523.16;5108253;28;20096;-31
2022/06/16 04:48:45;;;;;;;10.02;5.40;;;;;;;19.68;85.05;100536.16;5072779;28;20549;-30
2022/06/16 04:51:12;;;;;;;9.20;5.25;;;;;;;19.80;84.99;100535.16;5089385;28;20084;-33
2022/06/16 04:53:38;;;;;;;12.20;5.37;;;;;;;19.63;85.46;100511.78;5089250;28;20683;-31
2022/06/16 04:56:04;;;;;;;10.55;4.85;;;;;;;19.69;84.68;100507.22;5107810;28;20276;-29
2022/06/16 04:58:30;;;;;;;11.00;5.38;;;;;;;19.67;84.74;100517.50;5089589;28;20039;-31
2022/06/16 05:00:56;;;;;;;10.43;5.30;;;;;;;19.78;85.13;100530.00;5089172;28;20027;-30
2022/06/16 05:03:25;;;;;;;9.20;5.13;;;;;;;19.88;84.06;100512.97;5088869;28;20491;-31
2022/06/16 05:05:52;;;;;;;8.10;5.70;;;;;;;20.20;83.10;100537.03;5107558;28;20020;-31
2022/06/16 05:08:18;;;;;;;9.65;5.50;;;;;;;20.17;82.26;100520.53;5088917;28;20530;-35
2022/06/16 05:10:46;;;;;;;10.50;4.93;;;;;;;19.97;83.30;100532.97;5089104;28;20088;-28
2022/06/16 05:13:12;;;;;;;10.48;6.10;;;;;;;20.10;82.15;100520.00;5105838;28;20028;-28
2022/06/16 05:15:37;;;;;;;7.53;4.68;;;;;;;20.15;82.53;100539.75;5107447;28;20073;-27
2022/06/16 05:18:04;;;;;;;9.43;5.47;;;;;;;20.45;81.15;100525.38;5107465;28;20027;-27
2022/06/16 05:20:29;;;;;;;11.73;5.35;;;;;;;20.50;79.87;100521.84;5088954;28;20039;-34
2022/06/16 05:22:55;;;;;;;9.77;4.68;;;;;;;20.73;78.93;100544.84;5106993;28;20039;-29
2022/06/16 05:25:20;;;;;;;9.55;4.50;;;;;;;20.57;80.22;100538.63;5107284;28;20027;-31
2022/06/16 05:27:46;;;;;;;10.00;5.20;;;;;;;20.79;79.80;100541.03;5106822;28;20028;-32
2022/06/16 05:30:11;;;;;;;13.50;5.13;;;;;;;20.79;79.38;100511.22;5107660;28;20058;-33
2022/06/16 05:32:37;;;;;;;13.90;5.00;;;;;;;20.99;77.57;100531.22;5107008;28;20608;-28
2022/06/16 05:35:03;;;;;;;9.25;5.30;;;;;;;21.07;77.45;100536.09;5106892;28;20410;-27
2022/06/16 05:37:31;;;;;;;10.57;5.28;;;;;;;20.77;77.72;100535.09;5106836;28;20038;-28
2022/06/16 05:39:56;;;;;;;;;;;;;;;20.62;79.95;100543.28;5089254;28;20068;-30
2022/06/16 05:42:22;;;;;;;9.40;5.47;;;;;;;21.06;77.47;100539.88;5107170;28;19922;-29
2022/06/16 05:44:48;;;;;;;8.93;4.60;;;;;;;21.21;76.55;100545.25;5106935;28;20526;-31
2022/06/16 05:47:13;;;;;;;10.38;4.65;;;;;;;21.37;75.19;100542.44;5106562;28;20399;-30
2022/06/16 05:49:40;;;;;;;8.95;4.97;;;;;;;21.26;75.69;100531.66;5088220;28;20043;-27
2022/06/16 05:52:10;;;;;;;10.35;5.20;;;;;;;21.10;75.67;100549.06;5106488;28;20020;-32
2022/06/16 05:54:37;;;;;;;9.93;6.13;;;;;;;21.43;73.84;100514.22;5106793;28;20046;-30
2022/06/16 05:57:03;;;;;;;7.35;4.45;;;;;;;21.54;73.13;100520.41;5088555;28;20024;-30
2022/06/16 05:59:29;;;;;;;9.13;5.10;;;;;;;21.69;73.36;100505.94;5088462;28;20491;-28
2022/06/16 06:01:55;;;;;;;13.60;5.75;;;;;;;21.79;74.05;100519.44;5106747;28;20024;-28
2022/06/16 06:04:21;;;;;;;8.13;4.95;;;;;;;22.06;71.56;100522.47;5105284;28;20158;-28
2022/06/16 06:06:46;;;;;;;8.60;5.35;;;;;;;21.86;71.60;100519.91;5087894;28;20505;-30
2022/06/16 06:17:26;;;;;;;7.88;4.95;;;;;;;22.58;68.79;100544.59;5106777;28;20156;-29
2022/06/16 06:19:52;;;;;;;18.85;13.85;;;;;;;22.79;68.44;100542.44;5106685;28;20445;-29
2022/06/16 06:22:20;;;;;;;8.73;5.00;;;;;;;23.31;61.56;100548.09;5106493;28;20107;-28
2022/06/16 06:24:46;;;;;;;6.60;4.50;;;;;;;23.12;63.01;100548.06;5087914;28;20797;-32
2022/06/16 06:27:19;;;;;;;8.40;4.15;;;;;;;23.31;61.59;100544.56;5087775;28;20032;-34
2022/06/16 06:29:47;;;;;;;15.18;10.43;;;;;;;23.34;64.61;100549.44;5087509;28;20559;-29
2022/06/16 06:32:14;;;;;;;8.32;4.80;;;;;;;23.48;65.77;100550.34;5087945;28;20024;-33
2022/06/16 06:34:40;;;;;;;6.07;3.70;;;;;;;23.18;62.34;100527.88;5087542;28;20127;-30
2022/06/16 06:37:06;;;;;;;8.10;3.97;;;;;;;22.94;60.85;100527.84;5105691;28;20507;-29
2022/06/16 06:39:32;;;;;;;7.65;3.75;;;;;;;22.95;60.00;100550.44;5086963;28;20543;-30
2022/06/16 06:41:58;;;;;;;8.05;4.30;;;;;;;22.99;59.89;100544.13;5087399;28;20027;-30
2022/06/16 06:44:24;;;;;;;5.13;3.20;;;;;;;23.14;59.23;100551.31;5087693;28;20097;-33
2022/06/16 06:46:49;;;;;;;6.95;3.60;;;;;;;22.89;56.01;100532.56;5087706;28;20027;-28
2022/06/16 06:49:15;;;;;;;9.77;3.75;;;;;;;22.95;57.18;100543.09;5087716;28;20024;-31
2022/06/16 06:51:41;;;;;;;6.22;3.42;;;;;;;23.17;55.91;100548.03;5106194;28;20024;-31
2022/06/16 06:54:07;;;;;;;5.68;3.63;;;;;;;22.96;56.14;100554.78;5106121;28;20027;-31
2022/06/16 06:56:34;;;;;;;6.85;3.50;;;;;;;23.01;59.34;100552.84;5087746;28;20035;-34
2022/06/16 06:59:04;;;;;;;7.90;3.88;;;;;;;23.25;57.29;100546.53;5105760;28;20036;-39
2022/06/16 07:01:30;;;;;;;6.05;3.70;;;;;;;23.18;57.41;100543.38;5087776;28;20463;-35
2022/06/16 07:03:55;;;;;;;6.97;3.95;;;;;;;23.17;56.52;100534.41;5087583;28;20051;-29
2022/06/16 07:06:21;;;;;;;6.32;3.65;;;;;;;23.22;58.81;100545.22;5106145;28;20130;-31
2022/06/16 07:08:46;;;;;;;7.43;4.13;;;;;;;23.33;58.01;100526.84;5106000;28;20027;-30
2022/06/16 07:11:13;;;;;;;8.98;3.95;;;;;;;23.66;56.37;100532.41;5105947;28;20925;-28
2022/06/16 07:13:38;;;;;;;7.82;4.13;;;;;;;23.85;55.36;100540.56;5105820;28;20023;-33
2022/06/16 07:16:05;;;;;;;6.03;3.85;;;;;;;23.64;54.67;100540.84;5105949;28;20050;-29
2022/06/16 07:18:30;;;;;;;6.50;4.28;;;;;;;24.01;55.76;100536.50;5106177;28;20088;-38
2022/06/16 07:20:56;;;;;;;8.13;3.80;;;;;;;24.22;53.39;100530.69;5106096;28;20028;-29
2022/06/16 07:23:21;;;;;;;6.20;3.92;;;;;;;24.39;53.28;100508.31;5105558;28;20118;-31
2022/06/16 07:25:48;;;;;;;8.32;3.80;;;;;;;24.47;51.82;100522.06;5105584;28;20034;-30
2022/06/16 07:28:14;;;;;;;8.77;4.10;;;;;;;24.51;51.01;100518.78;5087695;28;20032;-32
2022/06/16 07:30:41;;;;;;;7.85;3.90;;;;;;;24.38;54.10;100521.16;5087361;28;20269;-28
2022/06/16 07:33:06;;;;;;;7.07;3.75;;;;;;;24.66;52.21;100540.28;5105489;28;20088;-33
2022/06/16 07:35:33;;;;;;;6.43;4.15;;;;;;;24.81;53.29;100548.19;5087051;28;20031;-35
2022/06/16 07:37:58;;;;;;;7.90;4.05;;;;;;;25.05;51.00;100542.53;5087284;28;20036;-32
2022/06/16 07:40:24;;;;;;;6.70;3.47;;;;;;;24.94;50.88;100541.09;5105493;28;20028;-30
2022/06/16 07:42:54;;;;;;;9.05;3.85;;;;;;;24.79;50.33;100539.50;5087347;28;20023;-29
2022/06/16 07:45:20;;;;;;;4.93;3.00;;;;;;;24.69;49.47;100539.69;5087324;28;20028;-29
2022/06/16 07:47:46;;;;;;;6.22;3.70;;;;;;;24.70;50.09;100522.19;5104348;28;20042;-31
2022/06/16 07:50:12;;;;;;;5.72;3.60;;;;;;;25.04;51.03;100537.38;5107993;28;20031;-33
2022/06/16 07:52:38;;;;;;;7.80;4.18;;;;;;;25.22;50.87;100536.47;5090721;28;20104;-30
2022/06/16 07:55:05;;;;;;;5.78;3.28;;;;;;;25.57;47.66;100536.78;5090164;28;20171;-31
2022/06/16 07:57:34;;;;;;;4.40;3.03;;;;;;;25.81;46.69;100525.56;5090606;28;20569;-30
2022/06/16 08:00:00;;;;;;;8.23;3.20;;;;;;;26.09;47.57;100516.47;5109038;28;20074;-29
2022/06/16 08:02:27;;;;;;;5.38;3.13;;;;;;;26.34;43.95;100518.53;5090277;28;20050;-29
2022/06/16 08:04:53;;;;;;;5.85;2.90;;;;;;;26.34;45.14;100521.28;5090360;28;20091;-32
2022/06/16 08:07:18;;;;;;;5.68;3.20;;;;;;;26.39;43.95;100523.06;5108428;28;20225;-32
2022/06/16 08:09:44;;;;;;;5.10;3.33;;;;;;;26.45;43.20;100538.22;5108452;28;20110;-32
2022/06/16 08:12:12;;;;;;;6.03;3.00;;;;;;;26.52;44.25;100543.22;5108914;28;20031;-30
2022/06/16 08:14:43;;;;;;;6.07;3.25;;;;;;;26.36;45.51;100529.97;5090171;28;20582;-36
2022/06/16 08:17:12;;;;;;;4.93;2.95;;;;;;;26.45;43.09;100536.28;5090130;28;20119;-30
2022/06/16 08:19:39;;;;;;;4.88;3.20;;;;;;;26.34;46.57;100537.69;5089996;28;20048;-29
2022/06/16 08:22:04;;;;;;;5.05;3.40;;;;;;;26.11;44.45;100533.34;5108337;28;20097;-33
2022/06/16 08:24:31;;;;;;;5.22;3.30;;;;;;;26.40;45.44;100520.03;5108583;28;20032;-31
2022/06/16 08:26:57;;;;;;;4.55;2.88;;;;;;;25.91;43.73;100521.81;5108713;28;20023;-28
2022/06/16 08:29:22;;;;;;;7.63;3.13;;;;;;;26.36;44.40;100521.78;5108301;28;20471;-29
2022/06/16 08:31:48;;;;;;;3.95;2.90;;;;;;;26.49;44.81;100532.94;5108649;28;20023;-31
2022/06/16 08:34:13;;;;;;;5.15;3.03;;;;;;;26.79;42.39;100529.38;5108214;28;20114;-30
2022/06/16 08:36:40;;;;;;;6.15;3.33;;;;;;;26.63;44.97;100533.66;5108180;28;20111;-29
2022/06/16 08:39:07;;;;;;;4.13;2.75;;;;;;;26.36;42.82;100519.03;5089746;28;20023;-30
2022/06/16 08:41:48;;;;;;;5.47;3.08;;;;;;;26.62;44.04;100532.03;5089810;28;20116;-30
2022/06/16 08:44:28;;;;;;;6.28;3.28;;;;;;;26.58;46.19;100520.94;5089690;28;20027;-28
2022/06/16 08:47:20;;;;;;;8.10;3.60;;;;;;;26.63;46.25;100528.19;5089659;28;20028;-30
2022/06/16 08:49:59;;;;;;;4.32;2.85;;;;;;;27.06;42.29;100530.25;5108055;28;20059;-30
2022/06/16 08:52:50;;;;;;;5.57;3.28;;;;;;;27.05;41.11;100523.16;5089582;28;20024;-29
2022/06/16 08:55:29;;;;;;;5.78;3.15;;;;;;;27.16;43.56;100513.53;5107632;28;20494;-32
2022/06/16 08:58:13;;;;;;;4.63;3.30;;;;;;;27.22;43.18;100511.44;5107634;28;20411;-31
2022/06/16 09:00:46;;;;;;;5.00;3.13;;;;;;;27.20;42.20;100500.81;5107259;28;20091;-31
2022/06/16 09:03:14;;;;;;;5.05;3.42;;;;;;;27.65;42.83;100513.44;5088798;28;20100;-32
2022/06/16 09:06:00;;;;;;;4.85;3.25;;;;;;;27.67;42.51;100504.91;5089155;28;20024;-31
2022/06/16 09:08:28;;;;;;;6.93;3.38;;;;;;;27.56;41.63;100509.88;5089302;28;20400;-32
2022/06/16 09:11:20;;;;;;;7.78;3.45;;;;;;;26.89;45.17;100487.25;5107827;28;20110;-29
2022/06/16 09:14:00;;;;;;;6.63;4.00;;;;;;;27.24;42.59;100488.13;5051412;28;20055;-33
2022/06/16 09:16:54;;;;;;;5.22;3.38;;;;;;;27.61;41.52;100485.88;5088928;28;20046;-32
2022/06/16 09:19:32;;;;;;;5.72;4.00;;;;;;;27.45;44.33;100492.97;5088708;28;20043;-32
2022/06/16 09:21:58;;;;;;;;;;;;;;;27.70;43.20;100498.75;5089268;28;20058;-35
2022/06/16 09:24:24;;;;;;;4.60;3.30;;;;;;;27.84;42.89;100494.69;5088960;28;19911;-28
2022/06/16 09:27:00;;;;;;;5.88;3.47;;;;;;;28.00;44.55;100486.81;5106833;28;20261;-28
2022/06/16 09:29:50;;;;;;;4.70;3.30;;;;;;;27.94;43.86;100490.06;5088925;28;20135;-31
2022/06/16 09:32:19;;;;;;;4.03;3.30;;;;;;;28.14;42.58;100475.66;5088880;28;20027;-32
2022/06/16 09:35:05;;;;;;;5.85;3.72;;;;;;;28.36;41.31;100492.97;5107142;28;20027;-33
2022/06/16 09:37:35;;;;;;;4.90;3.55;;;;;;;28.96;42.52;100489.16;5107336;28;20402;-30
2022/06/16 09:40:20;;;;;;;7.45;3.08;;;;;;;29.41;39.32;100488.53;5107379;28;20031;-31
2022/06/16 09:42:56;;;;;;;6.78;3.55;;;;;;;29.03;40.42;100477.66;5107252;28;20038;-32
2022/06/16 09:45:36;;;;;;;10.85;4.18;;;;;;;29.12;40.25;100470.19;5088236;28;20126;-33
2022/06/16 09:48:05;;;;;;;6.85;4.28;;;;;;;29.10;40.90;100488.91;5088515;28;20122;-30
2022/06/16 09:50:45;;;;;;;6.47;3.38;;;;;;;29.10;40.59;100483.44;5106859;28;20036;-33
2022/06/16 09:53:28;;;;;;;10.07;3.80;;;;;;;29.03;41.36;100488.63;5106725;28;20070;-30
2022/06/16 09:56:09;;;;;;;6.38;3.70;;;;;;;29.20;41.09;100491.31;5088381;28;20031;-28
2022/06/16 09:58:44;;;;;;;5.60;3.50;;;;;;;28.54;39.49;100486.31;5088324;28;20032;-30
2022/06/16 10:01:13;;;;;;;6.65;3.55;;;;;;;28.57;40.81;100479.38;5088048;28;20041;-31
2022/06/16 10:03:50;;;;;;;6.30;3.58;;;;;;;28.87;40.44;100474.69;5088112;28;20116;-29
2022/06/16 10:06:26;;;;;;;6.40;3.78;;;;;;;29.36;37.41;100486.00;5088115;28;20031;-30
2022/06/16 10:09:20;;;;;;;5.88;3.30;;;;;;;29.37;37.84;100481.31;5088114;28;20041;-31
2022/06/16 10:12:00;;;;;;;6.70;3.92;;;;;;;29.08;42.69;100477.47;5088255;28;20033;-28
2022/06/16 10:14:35;;;;;;;8.52;4.05;;;;;;;29.33;39.82;100466.66;5087741;28;20096;-35
2022/06/16 10:17:08;;;;;;;6.97;3.60;;;;;;;29.57;40.54;100475.00;5106032;28;20067;-35
2022/06/16 10:19:38;;;;;;;6.05;3.90;;;;;;;29.86;41.03;100469.75;5106347;28;20059;-32
2022/06/16 10:22:05;;;;;;;5.35;3.40;;;;;;;30.10;38.46;100463.47;5088241;28;20407;-33
2022/06/16 10:24:37;;;;;;;35.65;7.40;;;;;;;29.64;38.38;100461.50;5087823;28;20467;-31
2022/06/16 10:27:03;;;;;;;6.57;3.70;;;;;;;29.41;38.95;100476.75;5087612;28;20042;-32
2022/06/16 10:29:35;;;;;;;6.03;3.75;;;;;;;29.60;38.55;100463.31;5106831;28;20128;-29
2022/06/16 10:32:02;;;;;;;4.05;3.50;;;;;;;29.64;38.61;100446.97;5088133;28;20491;-32
2022/06/16 10:34:36;;;;;;;5.95;4.18;;;;;;;30.23;37.04;100456.84;5088091;28;20023;-32
2022/06/16 10:37:01;;;;;;;5.72;3.95;;;;;;;30.58;39.02;100454.47;5087577;28;20070;-33
2022/06/16 10:39:32;;;;;;;5.28;3.40;;;;;;;30.58;34.54;100446.22;5106139;28;20047;-33
2022/06/16 10:42:26;;;;;;;7.72;4.22;;;;;;;31.11;34.80;100440.78;5088129;28;20129;-34
2022/06/16 10:45:13;;;;;;;5.35;3.75;;;;;;;30.71;35.84;100449.78;5087978;28;21076;-31
2022/06/16 10:47:51;;;;;;;6.03;3.63;;;;;;;30.37;34.84;100440.84;5077571;28;20070;-29
2022/06/16 10:50:29;;;;;;;6.18;3.30;;;;;;;30.60;34.18;100437.63;5105888;28;20057;-30
2022/06/16 10:53:03;;;;;;;4.35;3.47;;;;;;;30.58;33.93;100437.16;5087669;28;20483;-29
2022/06/16 10:55:37;;;;;;;5.15;3.35;;;;;;;30.89;32.73;100435.78;5106060;28;20019;-32
2022/06/16 10:58:16;;;;;;;6.07;3.47;;;;;;;30.40;33.52;100406.34;5087524;28;20183;-30
2022/06/16 11:00:41;;;;;;;6.97;3.60;;;;;;;30.58;34.38;100426.97;5087012;28;20038;-35
2022/06/16 11:03:10;;;;;;;5.97;3.50;;;;;;;31.19;33.03;100419.75;5105610;28;20027;-30
2022/06/16 11:05:52;;;;;;;4.75;3.08;;;;;;;30.51;32.56;100429.50;5105904;28;20015;-34
2022/06/16 11:08:21;;;;;;;4.07;3.28;;;;;;;31.03;32.07;100416.94;5105943;28;20092;-33
2022/06/16 11:10:56;;;;;;;5.50;3.42;;;;;;;31.11;32.18;100409.69;5087277;28;20023;-33
2022/06/16 11:13:29;;;;;;;4.47;3.35;;;;;;;31.83;32.03;100421.53;5087183;28;20514;-36
2022/06/16 11:15:55;;;;;;;4.60;3.40;;;;;;;31.50;33.32;100419.06;5105810;28;20076;-28
2022/06/16 11:18:24;;;;;;;4.13;3.30;;;;;;;31.50;31.61;100419.06;5087545;28;20408;-31
2022/06/16 11:20:54;;;;;;;4.32;3.00;;;;;;;31.67;31.55;100411.63;5087363;28;20031;-32
2022/06/16 11:23:19;;;;;;;4.80;2.78;;;;;;;31.83;30.00;100415.19;5105468;28;20028;-30
2022/06/16 11:25:46;;;;;;;4.07;2.63;;;;;;;31.80;32.14;100402.94;5108960;28;20027;-29
2022/06/16 11:28:15;;;;;;;4.75;3.03;;;;;;;31.08;35.93;100402.09;5091328;28;20031;-36
2022/06/16 11:30:50;;;;;;;4.25;3.08;;;;;;;31.72;33.45;100392.06;5091172;28;20130;-32
2022/06/16 11:36:42;;;;;;;3.58;2.83;;;;;;;31.67;32.18;100389.56;5109827;28;20038;-29
2022/06/16 11:39:26;;;;;;;5.13;3.55;;;;;;;31.05;33.06;100398.09;5090366;28;20023;-31
2022/06/16 11:41:54;;;;;;;4.70;2.75;;;;;;;31.23;31.83;100382.09;5109493;28;20023;-33
2022/06/16 11:44:34;;;;;;;3.35;2.70;;;;;;;32.19;30.58;100386.59;5090650;28;20415;-33
2022/06/16 11:47:21;;;;;;;4.93;2.90;;;;;;;31.06;32.95;100385.94;5109016;28;20053;-37
2022/06/16 11:50:24;;;;;;;4.20;2.97;;;;;;;31.00;32.13;100390.09;5108941;28;20051;-32
2022/06/16 11:52:55;;;;;;;3.92;2.60;;;;;;;31.35;33.37;100384.00;5109193;28;20038;-31
2022/06/16 11:55:36;;;;;;;4.25;2.60;;;;;;;31.59;31.92;100383.88;5090448;28;20587;-29
2022/06/16 11:58:32;;;;;;;4.80;2.50;;;;;;;31.81;30.79;100385.25;5090632;28;20210;-31
2022/06/16 12:01:01;;;;;;;4.63;2.50;;;;;;;31.79;30.90;100381.22;5090452;28;20031;-34